Hodgen, Oklahoma
Current Conditions -  °F | °C
As of 11:35 PM on Friday 24 Oct 2014 (Local Time) from KRKR Reporting Station
Clear Clear  
Wind Chill: 60°   Ceiling: Unl
Heat Index: 60°   Visibility: 10mi
Dew Point: 57°   Wind: 3mph
Humidity: 88%   Direction: 230°SW
Pressure: 30.09"   Gusts: NA
Location:  34.84°N, 94.63°W
Report Text: KRKR 250435Z AUTO 23003KT 10SM CLR 16/14 A3009 RMK AO2 T01580139
Loading
Personal Weather Stations






























Interactive Weather Map
Tropical Storm Tracking
New forecast layout! Learn more

10-Day Weather Forecast

Advertisements
Track Severe Weather on mobile